createdAt,value
2023-02-12T00:04:58.237Z,3.62
2023-02-12T00:10:19.068Z,3.58
2023-02-12T00:15:41.602Z,3.61
2023-02-12T00:21:03.217Z,3.61
2023-02-12T00:26:24.874Z,3.65
2023-02-12T00:31:46.025Z,3.66
2023-02-12T00:37:07.079Z,3.61
2023-02-12T00:42:27.880Z,3.61
2023-02-12T00:47:49.973Z,3.49
2023-02-12T00:53:10.602Z,3.51
2023-02-12T00:58:31.778Z,3.53
2023-02-12T01:03:53.371Z,3.55
2023-02-12T01:09:15.366Z,3.63
2023-02-12T01:14:36.354Z,3.66
2023-02-12T01:19:59.039Z,3.68
2023-02-12T01:25:21.394Z,3.72
2023-02-12T01:30:42.458Z,3.71
2023-02-12T01:36:03.645Z,3.76
2023-02-12T01:41:27.453Z,3.80
2023-02-12T01:47:00.544Z,3.84
2023-02-12T01:52:27.728Z,3.74
2023-02-12T01:57:50.857Z,3.70
2023-02-12T02:03:12.152Z,3.64
2023-02-12T02:08:34.290Z,3.65
2023-02-12T02:14:14.892Z,3.79
2023-02-12T02:19:35.938Z,3.76
2023-02-12T02:24:59.928Z,3.80
2023-02-12T02:30:36.947Z,3.81
2023-02-12T02:36:05.090Z,3.79
2023-02-12T02:41:46.777Z,3.84
2023-02-12T02:47:11.519Z,3.81
2023-02-12T02:52:39.432Z,3.85
2023-02-12T02:58:06.236Z,3.98
2023-02-12T03:03:33.093Z,4.10
2023-02-12T03:09:05.529Z,4.01
2023-02-12T03:14:31.726Z,4.03
2023-02-12T03:20:00.714Z,4.03
2023-02-12T03:25:44.494Z,4.04
2023-02-12T03:31:05.265Z,4.06
2023-02-12T03:36:34.944Z,3.92
2023-02-12T03:42:20.263Z,3.92
2023-02-12T03:47:47.891Z,3.93
2023-02-12T03:53:08.760Z,3.94
2023-02-12T03:58:34.652Z,3.93
2023-02-12T04:03:55.790Z,3.97
2023-02-12T04:09:17.667Z,4.04
2023-02-12T04:14:54.756Z,4.04
2023-02-12T04:20:27.319Z,4.03
2023-02-12T04:26:08.508Z,3.96
2023-02-12T04:31:42.611Z,3.97
2023-02-12T04:37:14.438Z,3.90
2023-02-12T04:42:50.481Z,4.08
2023-02-12T04:48:12.835Z,4.14
2023-02-12T04:53:33.614Z,4.11
2023-02-12T04:58:57.789Z,4.15
2023-02-12T05:04:18.883Z,4.10
2023-02-12T05:09:39.679Z,3.95
2023-02-12T05:15:00.384Z,4.00
2023-02-12T05:20:21.264Z,4.07
2023-02-12T05:25:41.977Z,4.15
2023-02-12T05:31:05.760Z,4.16
2023-02-12T05:36:26.888Z,4.12
2023-02-12T05:41:47.560Z,4.11
2023-02-12T05:47:08.425Z,4.15
2023-02-12T05:52:29.041Z,4.11
2023-02-12T05:57:51.159Z,4.05
2023-02-12T06:03:12.099Z,3.95
2023-02-12T06:08:33.317Z,4.03
2023-02-12T06:13:54.540Z,4.01
2023-02-12T06:19:15.930Z,3.93
2023-02-12T06:24:37.248Z,3.91
2023-02-12T06:29:58.214Z,3.88
2023-02-12T06:35:18.816Z,3.80
2023-02-12T06:40:39.385Z,3.96
2023-02-12T06:46:04.221Z,4.03
2023-02-12T06:51:26.168Z,3.94
2023-02-12T06:56:46.934Z,3.87
2023-02-12T07:02:10.633Z,3.84
2023-02-12T07:07:31.730Z,3.89
2023-02-12T07:12:52.411Z,4.01
2023-02-12T07:18:13.136Z,4.00
2023-02-12T07:23:34.330Z,4.10
2023-02-12T07:28:56.819Z,4.15
2023-02-12T07:34:17.757Z,4.26
2023-02-12T07:39:38.481Z,4.38
2023-02-12T07:44:59.058Z,4.15
2023-02-12T07:50:19.996Z,3.95
2023-02-12T07:55:40.732Z,3.95
2023-02-12T08:01:10.668Z,4.25
2023-02-12T08:06:33.069Z,4.44
2023-02-12T08:11:54.426Z,4.59
2023-02-12T08:17:15.633Z,4.75
2023-02-12T08:22:37.229Z,4.67
2023-02-12T08:27:57.829Z,4.53
2023-02-12T08:33:18.528Z,4.60
2023-02-12T08:38:39.964Z,4.57
2023-02-12T08:44:03.317Z,4.66
2023-02-12T08:49:27.188Z,4.70
2023-02-12T08:54:48.077Z,4.80
2023-02-12T09:00:09.500Z,4.79
2023-02-12T09:05:30.961Z,4.75
2023-02-12T09:10:51.751Z,4.72
2023-02-12T09:16:13.729Z,4.78
2023-02-12T09:21:34.377Z,4.68
2023-02-12T09:26:55.941Z,4.54
2023-02-12T09:32:16.680Z,4.53
2023-02-12T09:37:37.561Z,4.61
2023-02-12T09:43:07.141Z,4.61
2023-02-12T09:48:49.171Z,4.65
2023-02-12T09:54:15.218Z,4.71
2023-02-12T09:59:41.589Z,4.78
2023-02-12T10:05:02.858Z,4.81
2023-02-12T10:10:51.483Z,4.92
2023-02-12T10:16:33.595Z,4.89
2023-02-12T10:22:03.824Z,4.96
2023-02-12T10:27:53.577Z,4.94
2023-02-12T10:33:21.208Z,4.89
2023-02-12T10:38:47.255Z,4.87
2023-02-12T10:44:10.678Z,4.86
2023-02-12T10:49:33.114Z,4.93
2023-02-12T10:54:53.992Z,4.91
2023-02-12T11:00:33.445Z,4.96
2023-02-12T11:05:54.894Z,4.98
2023-02-12T11:11:28.308Z,4.98
2023-02-12T11:16:57.923Z,5.16
2023-02-12T11:22:19.493Z,5.18
2023-02-12T11:27:40.439Z,5.21
2023-02-12T11:33:37.650Z,5.46
2023-02-12T11:38:59.827Z,5.56
2023-02-12T11:44:41.527Z,5.62
2023-02-12T11:50:09.175Z,5.62
2023-02-12T11:55:34.051Z,5.47
2023-02-12T12:00:59.025Z,5.63
2023-02-12T12:06:19.875Z,5.69
2023-02-12T12:11:54.947Z,5.78
2023-02-12T12:17:36.171Z,5.85
2023-02-12T12:23:03.828Z,5.81
2023-02-12T12:28:37.368Z,5.77
2023-02-12T12:34:17.850Z,5.79
2023-02-12T12:39:47.810Z,6.04
2023-02-12T12:45:46.093Z,6.06
2023-02-12T12:51:34.691Z,5.90
2023-02-12T12:57:17.488Z,5.80
2023-02-12T13:02:53.259Z,5.80
2023-02-12T13:08:28.558Z,5.77
2023-02-12T13:13:53.868Z,5.73
2023-02-12T13:19:56.731Z,5.72
2023-02-12T13:25:18.151Z,5.76
2023-02-12T13:30:50.158Z,5.79
2023-02-12T13:36:14.639Z,5.83
2023-02-12T13:41:36.853Z,5.87
2023-02-12T13:47:21.397Z,5.95
2023-02-12T13:53:01.368Z,5.97
2023-02-12T13:58:40.184Z,6.81
2023-02-12T14:04:43.594Z,6.66
2023-02-12T14:10:06.326Z,6.36
2023-02-12T14:15:29.541Z,6.19
2023-02-12T14:21:12.438Z,6.14
2023-02-12T14:26:38.799Z,6.00
2023-02-12T14:32:02.263Z,5.99
2023-02-12T14:37:37.624Z,6.04
2023-02-12T14:42:59.582Z,6.19
2023-02-12T14:48:41.393Z,6.24
2023-02-12T14:54:06.757Z,7.30
2023-02-12T14:59:31.611Z,7.09
2023-02-12T15:04:54.878Z,6.84
2023-02-12T15:10:19.918Z,6.64
2023-02-12T15:15:50.992Z,6.32
2023-02-12T15:21:25.631Z,6.25
2023-02-12T15:26:55.967Z,6.12
2023-02-12T15:32:25.720Z,6.08
2023-02-12T15:37:47.031Z,6.11
2023-02-12T15:43:18.033Z,6.06
2023-02-12T15:48:39.667Z,6.04
2023-02-12T15:54:04.827Z,6.01
2023-02-12T15:59:29.241Z,6.12
2023-02-12T16:04:51.116Z,6.29
2023-02-12T16:10:22.836Z,6.29
2023-02-12T16:15:43.925Z,6.32
2023-02-12T16:21:35.785Z,6.38
2023-02-12T16:26:59.365Z,6.24
2023-02-12T16:32:32.684Z,6.15
2023-02-12T16:38:01.369Z,6.17
2023-02-12T16:43:25.370Z,6.22
2023-02-12T16:48:51.858Z,5.88
2023-02-12T16:54:34.032Z,5.76
2023-02-12T16:59:54.978Z,5.83
2023-02-12T17:05:18.384Z,5.88
2023-02-12T17:10:39.340Z,5.67
2023-02-12T17:16:03.970Z,5.74
2023-02-12T17:21:40.754Z,5.82
2023-02-12T17:27:02.831Z,5.84
2023-02-12T17:32:25.482Z,5.84
2023-02-12T17:37:48.134Z,5.86
2023-02-12T17:43:08.887Z,5.79
2023-02-12T17:48:29.803Z,5.58
2023-02-12T17:53:50.687Z,5.42
2023-02-12T17:59:12.015Z,6.07
2023-02-12T18:04:35.869Z,6.17
2023-02-12T18:09:57.005Z,5.96
2023-02-12T18:15:18.091Z,6.61
2023-02-12T18:20:42.858Z,6.42
2023-02-12T18:26:16.104Z,6.27
2023-02-12T18:31:37.041Z,6.07
2023-02-12T18:36:57.803Z,5.98
2023-02-12T18:42:18.746Z,5.71
2023-02-12T18:47:39.622Z,5.55
2023-02-12T18:53:00.419Z,5.49
2023-02-12T18:58:21.207Z,5.43
2023-02-12T19:03:42.384Z,5.39
2023-02-12T19:09:03.922Z,5.25
2023-02-12T19:14:25.631Z,5.15
2023-02-12T19:19:50.125Z,5.16
2023-02-12T19:25:11.329Z,5.25
2023-02-12T19:30:32.393Z,5.08
2023-02-12T19:35:53.713Z,5.12
2023-02-12T19:41:17.738Z,5.03
2023-02-12T19:46:40.557Z,5.03
2023-02-12T19:52:01.600Z,5.10
2023-02-12T19:57:23.307Z,5.09
2023-02-12T20:02:44.351Z,5.04
2023-02-12T20:08:05.067Z,4.96
2023-02-12T20:13:26.087Z,4.99
2023-02-12T20:18:49.466Z,5.07
2023-02-12T20:24:10.449Z,5.07
2023-02-12T20:29:31.450Z,5.01
2023-02-12T20:34:53.666Z,4.95
2023-02-12T20:40:14.605Z,4.97
2023-02-12T20:45:35.504Z,5.08
2023-02-12T20:50:57.373Z,5.13
2023-02-12T20:56:24.687Z,5.18
2023-02-12T21:01:45.930Z,5.18
2023-02-12T21:07:07.029Z,5.04
2023-02-12T21:12:27.837Z,4.97
2023-02-12T21:17:48.763Z,5.02
2023-02-12T21:23:10.301Z,5.07
2023-02-12T21:28:32.521Z,5.23
2023-02-12T21:33:55.231Z,5.18
2023-02-12T21:39:25.001Z,5.00
2023-02-12T21:44:45.904Z,5.05
2023-02-12T21:50:07.041Z,5.14
2023-02-12T21:55:27.866Z,4.95
2023-02-12T22:00:50.499Z,4.96
2023-02-12T22:06:12.496Z,5.09
2023-02-12T22:11:35.041Z,5.16
2023-02-12T22:16:55.923Z,5.03
2023-02-12T22:22:16.677Z,4.99
2023-02-12T22:27:38.703Z,5.03
2023-02-12T22:32:59.546Z,4.92
2023-02-12T22:38:20.224Z,4.82
2023-02-12T22:43:42.111Z,4.90
2023-02-12T22:49:03.007Z,5.11
2023-02-12T22:54:23.731Z,5.06
2023-02-12T22:59:44.338Z,5.02
2023-02-12T23:05:05.363Z,5.01
2023-02-12T23:10:26.472Z,4.99
2023-02-12T23:15:47.550Z,4.97
2023-02-12T23:21:08.846Z,4.92
2023-02-12T23:26:30.438Z,5.05
2023-02-12T23:31:51.284Z,5.06
2023-02-12T23:37:12.252Z,5.14
2023-02-12T23:42:33.355Z,5.04
2023-02-12T23:47:54.317Z,4.99
2023-02-12T23:53:15.360Z,5.12
2023-02-12T23:58:35.952Z,5.21
